Hlavní strana
METAR-TAF:

METAR-TAF

Letiště :

Downtown_Memorial_Airport

Spartanburg, Jižní Karolína, Spojené státy americké

zeměpisná šířka: 34-55N, zeměpisná délka: 081-57W, výška: 246 m

Aktuální stav počasí

Zpráva byla vytvořena před 5 minutami, v 01:35 UTC
Bezvětří
Teplota 3°C
Vlhkost vzduchu 93%
Tlak 1020 hPa
Viditelnost: 6.4 km
Polojasno ve výšce 300 ft
Oblačno až skoro zataženo ve výšce 1700 ft
Zataženo ve výšce 2600 ft
kouřmo

METAR: KSPA 190135Z AUTO 00000KT 4SM BR SCT003 BKN017 OVC026 03/02 A3011 RMK AO2 P0001

Čas: 20:40 (01:40 UTC)


TAF: chybějící

Stav a předpovědi počasí z více než 4 000 letišť (zprávy METAR a TAF).

Červené a žluté tečky na mapě představují dostupné meteorologické stanice.

Když kurzor umístíte na tečku, zobrazí se název stanice.

Pak kliknutím zobrazíte stav a předpověď počasí.

Chcete-li změnit mapu, kliknutím na zelené tlačítko se znaménkem +mapu přiblížíte, kliknutím na zelené tlačítko se znaménkem – mapu oddálíte a kliknutím na zelené šipky přejdete na sousední mapy.


METAR-TAF: